Time;durP1;ratioP1;P1;durP2;ratioP2;P2;SDS_P1;SDS_P2;PMS_P1;PMS_P2;Temp;Humidity;BMP_temperature;BMP_pressure;BME280_temperature;BME280_humidity;BME280_pressure;Samples;Min_cycle;Max_cycle;Signal;HPM_P1;HPM_P2
2022/05/28 00:00:19;;;;;;;;;7.33;5.00;;;;;18.77;87.21;102124.69;5038318;28;45233;-74
2022/05/28 00:02:45;;;;;;;;;7.33;7.33;;;;;18.73;87.02;102120.22;5038948;28;45460;-73
2022/05/28 00:05:10;;;;;;;;;7.00;6.00;;;;;18.71;87.44;102116.66;5038773;28;45389;-72
2022/05/28 00:07:36;;;;;;;;;7.00;7.00;;;;;18.70;86.89;102117.56;5038014;28;45310;-73
2022/05/28 00:10:02;;;;;;;;;12.67;8.00;;;;;18.66;87.56;102113.97;5033367;28;55724;-73
2022/05/28 00:12:31;;;;;;;;;8.00;6.00;;;;;18.63;88.00;102113.06;5020166;28;47181;-73
2022/05/28 00:14:57;;;;;;;;;7.00;6.00;;;;;18.59;88.42;102112.19;5017729;28;45399;-74
2022/05/28 00:17:23;;;;;;;;;6.33;4.33;;;;;18.56;88.86;102115.75;5019010;28;45566;-75
2022/05/28 00:19:49;;;;;;;;;6.00;6.00;;;;;18.54;88.64;102120.22;5019041;28;45457;-72
2022/05/28 00:22:15;;;;;;;;;6.67;6.67;;;;;18.49;89.46;102111.31;5018206;28;46614;-74
2022/05/28 00:24:40;;;;;;;;;8.00;6.00;;;;;18.47;90.21;102110.41;5033894;28;47836;-73
2022/05/28 00:27:05;;;;;;;;;9.33;6.67;;;;;18.44;89.90;102113.09;5038579;28;45493;-72
2022/05/28 00:29:31;;;;;;;;;8.00;6.00;;;;;18.41;90.27;102107.75;5038614;28;45551;-72
2022/05/28 00:31:56;;;;;;;;;8.00;7.67;;;;;18.39;90.05;102104.19;5020684;28;62509;-73
2022/05/28 00:34:22;;;;;;;;;6.33;6.33;;;;;18.38;91.03;102106.88;5018518;28;58052;-72
2022/05/28 00:36:47;;;;;;;;;6.67;5.00;;;;;18.33;91.13;102104.22;5021302;28;45412;-72
2022/05/28 00:39:13;;;;;;;;;9.00;7.33;;;;;18.29;91.47;102103.31;5018780;28;45226;-75
2022/05/28 00:41:38;;;;;;;;;11.00;5.00;;;;;18.25;92.20;102112.22;5012798;28;61716;-72
2022/05/28 00:44:05;;;;;;;;;6.00;5.67;;;;;18.22;92.49;102111.34;5038203;28;45261;-74
2022/05/28 00:46:31;;;;;;;;;6.00;5.00;;;;;18.16;92.14;102101.50;5037892;28;45398;-73
2022/05/28 00:48:59;;;;;;;;;7.00;6.00;;;;;18.14;92.61;102102.41;5037066;28;45669;-72
2022/05/28 00:51:27;;;;;;;;;11.00;7.00;;;;;18.09;92.86;102096.19;5020056;28;46588;-73
2022/05/28 00:53:54;;;;;;;;;9.33;6.00;;;;;18.05;93.44;102095.28;5020603;28;45360;-72
2022/05/28 00:56:22;;;;;;;;;9.33;7.00;;;;;18.03;93.72;102097.97;5020342;28;45319;-72
2022/05/28 00:58:48;;;;;;;;;8.00;6.00;;;;;17.99;93.98;102093.50;5028704;28;45155;-73
2022/05/28 01:01:15;;;;;;;;;7.67;6.00;;;;;17.97;94.52;102097.06;5036129;28;45817;-72
2022/05/28 01:03:55;;;;;;;;;10.00;6.33;;;;;17.94;94.65;102097.94;5035950;28;57805;-73
2022/05/28 01:06:47;;;;;;;;;11.33;7.00;;;;;17.90;94.29;102098.84;5037917;28;45497;-73
2022/05/28 01:09:51;;;;;;;;;8.67;6.00;;;;;17.87;94.99;102101.50;5036202;28;45571;-74
2022/05/28 01:12:44;;;;;;;;;8.00;7.00;;;;;17.85;95.38;102094.41;4999165;28;46235;-73
2022/05/28 01:15:23;;;;;;;;;5.00;5.00;;;;;17.82;95.38;102094.38;5000151;28;45464;-73
2022/05/28 01:17:53;;;;;;;;;9.00;7.00;;;;;17.79;95.74;102090.81;5035480;28;45249;-75
2022/05/28 01:20:49;;;;;;;;;9.00;6.67;;;;;17.76;95.74;102089.91;5037697;28;45341;-72
2022/05/28 01:23:20;;;;;;;;;11.00;8.00;;;;;17.73;96.60;102088.13;5028736;28;46705;-73
2022/05/28 01:26:09;;;;;;;;;8.00;6.00;;;;;17.68;96.09;102087.19;5034739;28;45401;-72
2022/05/28 01:28:42;;;;;;;;;9.33;7.00;;;;;17.65;96.92;102086.31;5020060;28;45353;-73
2022/05/28 01:31:08;;;;;;;;;7.33;7.33;;;;;17.60;97.23;102078.28;5010116;28;45317;-73
2022/05/28 01:33:35;;;;;;;;;7.00;6.00;;;;;17.57;97.44;102080.94;4998818;28;65528;-73
2022/05/28 01:36:03;;;;;;;;;8.67;6.00;;;;;17.54;97.82;102072.94;5012041;28;45333;-74
2022/05/28 01:38:30;;;;;;;;;6.00;6.00;;;;;17.52;98.13;102074.69;5037638;28;45362;-74
2022/05/28 01:40:56;;;;;;;;;6.00;6.00;;;;;17.48;98.07;102079.16;5019386;28;48336;-72
2022/05/28 01:43:21;;;;;;;;;5.33;5.33;;;;;17.43;98.67;102074.69;5013992;28;47361;-73
2022/05/28 01:45:47;;;;;;;;;7.00;5.67;;;;;17.41;99.36;102069.31;4999708;28;45567;-76
2022/05/28 01:48:13;;;;;;;;;8.67;7.00;;;;;17.38;99.48;102069.34;4999311;28;55530;-73
2022/05/28 01:50:43;;;;;;;;;7.00;6.33;;;;;17.37;99.79;102080.03;4999819;28;45277;-73
2022/05/28 01:53:10;;;;;;;;;8.00;6.67;;;;;17.33;100.00;102068.44;5016013;28;46718;-72
2022/05/28 01:55:40;;;;;;;;;7.33;6.00;;;;;17.28;100.00;102070.19;5036741;28;45387;-73
2022/05/28 01:58:05;;;;;;;;;6.33;6.33;;;;;17.22;100.00;102071.06;5020965;28;45349;-73
2022/05/28 02:00:31;;;;;;;;;11.67;9.00;;;;;17.20;100.00;102067.47;5036529;28;53920;-73
2022/05/28 02:03:00;;;;;;;;;7.33;7.00;;;;;17.18;100.00;102066.59;5017452;28;46471;-74
2022/05/28 02:05:26;;;;;;;;;8.00;6.67;;;;;17.16;100.00;102064.81;4999274;28;45247;-73
2022/05/28 02:07:51;;;;;;;;;10.00;6.33;;;;;17.14;100.00;102067.47;5018266;28;45383;-72
2022/05/28 02:10:19;;;;;;;;;8.33;6.67;;;;;17.12;100.00;102060.34;5027885;28;54474;-75
2022/05/28 02:12:53;;;;;;;;;9.67;6.00;;;;;17.09;100.00;102055.88;5024217;28;45798;-73
2022/05/28 02:15:44;;;;;;;;;8.33;5.67;;;;;17.08;100.00;102055.88;5018811;28;45268;-73
2022/05/28 02:18:32;;;;;;;;;13.00;8.33;;;;;17.02;100.00;102049.63;5018829;28;45471;-75
2022/05/28 02:21:05;;;;;;;;;6.67;6.67;;;;;17.02;100.00;102054.06;5018785;28;45567;-73
2022/05/28 02:23:42;;;;;;;;;6.33;6.00;;;;;17.01;100.00;102058.53;5018789;28;46199;-72
2022/05/28 02:26:18;;;;;;;;;6.00;6.00;;;;;16.99;100.00;102051.38;5017355;28;45396;-72
2022/05/28 02:28:44;;;;;;;;;8.67;5.00;;;;;16.97;100.00;102043.38;5011906;28;45234;-72
2022/05/28 02:31:24;;;;;;;;;8.00;6.33;;;;;16.95;100.00;102046.94;4999345;28;45266;-73
2022/05/28 02:33:50;;;;;;;;;9.00;5.00;;;;;16.94;100.00;102040.72;5016773;28;46465;-73
2022/05/28 02:36:16;;;;;;;;;12.33;9.00;;;;;16.94;100.00;102037.16;5015192;28;45484;-73
2022/05/28 02:38:42;;;;;;;;;10.00;7.00;;;;;16.91;100.00;102037.13;5039335;28;45196;-75
2022/05/28 02:41:08;;;;;;;;;10.67;8.33;;;;;16.88;100.00;102039.78;5040184;28;45614;-73
2022/05/28 02:43:33;;;;;;;;;9.00;9.00;;;;;16.86;100.00;102033.56;5031272;28;45409;-72
2022/05/28 02:46:02;;;;;;;;;6.00;6.00;;;;;16.86;100.00;102036.22;5032215;28;45289;-72
2022/05/28 02:48:27;;;;;;;;;6.00;6.00;;;;;16.84;100.00;102033.56;5040217;28;45307;-73
2022/05/28 02:50:53;;;;;;;;;8.67;7.00;;;;;16.82;100.00;102032.66;5039579;28;49373;-72
2022/05/28 02:53:18;;;;;;;;;10.00;7.00;;;;;16.81;100.00;102035.31;5040094;28;45353;-73
2022/05/28 02:55:44;;;;;;;;;8.67;7.33;;;;;16.79;100.00;102037.09;5039056;28;61022;-73
2022/05/28 02:58:10;;;;;;;;;9.33;9.33;;;;;16.75;100.00;102031.72;5035389;28;45451;-73
2022/05/28 03:00:36;;;;;;;;;7.00;7.00;;;;;16.72;100.00;102021.06;5032416;28;45559;-72
2022/05/28 03:03:01;;;;;;;;;9.00;8.00;;;;;16.69;100.00;102025.44;5033091;28;46200;-74
2022/05/28 03:05:27;;;;;;;;;11.00;9.00;;;;;16.65;100.00;102028.97;5023687;28;57353;-72
2022/05/28 03:07:52;;;;;;;;;9.00;6.00;;;;;16.61;100.00;102025.38;5038790;28;45194;-72
2022/05/28 03:10:17;;;;;;;;;8.33;8.00;;;;;16.60;100.00;102042.28;5039707;28;45306;-72
2022/05/28 03:12:43;;;;;;;;;9.33;7.00;;;;;16.58;100.00;102036.06;5039082;28;46358;-74
2022/05/28 03:15:09;;;;;;;;;7.67;6.33;;;;;16.57;100.00;102038.72;5035750;28;59041;-72
2022/05/28 03:17:34;;;;;;;;;13.33;8.00;;;;;16.53;100.00;102034.25;5019879;28;45554;-72
2022/05/28 03:20:01;;;;;;;;;8.00;8.00;;;;;16.49;100.00;102039.56;5018993;28;57388;-72
2022/05/28 03:22:27;;;;;;;;;8.67;7.67;;;;;16.52;100.00;102037.81;5004159;28;46462;-72
2022/05/28 03:24:53;;;;;;;;;9.67;7.00;;;;;16.48;100.00;102032.44;5039419;28;45360;-72
2022/05/28 03:27:18;;;;;;;;;9.67;7.67;;;;;16.46;100.00;102031.56;5039561;28;45515;-72
2022/05/28 03:29:44;;;;;;;;;9.67;8.67;;;;;16.42;100.00;102035.06;5037871;28;53574;-72
2022/05/28 03:32:09;;;;;;;;;6.00;6.00;;;;;16.41;100.00;102035.97;5025086;28;60922;-72
2022/05/28 03:34:34;;;;;;;;;9.00;8.00;;;;;16.42;100.00;102037.75;5039021;28;45297;-73
2022/05/28 03:37:00;;;;;;;;;8.67;6.33;;;;;16.42;100.00;102039.53;5019753;28;55475;-72
2022/05/28 03:39:25;;;;;;;;;8.00;7.00;;;;;16.39;100.00;102035.03;5020053;28;46127;-74
2022/05/28 03:41:50;;;;;;;;;11.33;8.00;;;;;16.36;100.00;102040.38;5026411;28;46255;-74
2022/05/28 03:44:16;;;;;;;;;10.00;7.33;;;;;16.35;100.00;102037.69;5019292;28;45297;-73
2022/05/28 03:46:42;;;;;;;;;10.00;6.00;;;;;16.35;100.00;102035.00;5019213;28;45727;-74
2022/05/28 03:49:16;;;;;;;;;7.67;7.00;;;;;16.32;100.00;102032.34;5017578;28;46002;-74
2022/05/28 03:51:42;;;;;;;;;6.67;6.67;;;;;16.28;100.00;102035.88;5017721;28;47623;-75
2022/05/28 03:54:07;;;;;;;;;8.67;7.00;;;;;16.27;100.00;102045.63;5018981;28;45392;-73
2022/05/28 03:56:36;;;;;;;;;7.00;7.00;;;;;16.24;100.00;102048.25;5018913;28;46986;-73
2022/05/28 03:59:03;;;;;;;;;11.00;9.00;;;;;16.24;100.00;102053.59;5028789;28;45309;-72
2022/05/28 04:01:29;;;;;;;;;10.00;8.00;;;;;16.20;100.00;102063.38;5001133;28;46610;-75
2022/05/28 04:03:54;;;;;;;;;12.33;10.00;;;;;16.18;100.00;102057.09;5019288;28;62451;-74
2022/05/28 04:06:19;;;;;;;;;10.00;7.00;;;;;16.17;100.00;102060.66;5038292;28;56367;-74
2022/05/28 04:08:45;;;;;;;;;9.33;8.67;;;;;16.18;100.00;102058.88;5019926;28;52108;-72
2022/05/28 04:11:10;;;;;;;;;11.33;8.67;;;;;16.17;100.00;102057.09;5031004;28;45563;-72
2022/05/28 04:13:35;;;;;;;;;6.00;6.00;;;;;16.18;100.00;102058.88;5018790;28;45163;-72
2022/05/28 04:16:01;;;;;;;;;8.33;8.00;;;;;16.17;100.00;102066.00;5023473;28;45203;-72
2022/05/28 04:18:26;;;;;;;;;9.67;9.00;;;;;16.15;100.00;102058.88;5038624;28;45266;-73
2022/05/28 04:20:52;;;;;;;;;11.00;9.00;;;;;16.13;100.00;102065.94;5037977;28;61271;-73
2022/05/28 04:23:17;;;;;;;;;11.00;10.33;;;;;16.11;100.00;102060.63;5038079;28;59388;-72
2022/05/28 04:25:42;;;;;;;;;16.00;10.00;;;;;16.11;100.00;102062.41;5022673;28;45901;-72
2022/05/28 04:28:09;;;;;;;;;11.33;9.67;;;;;16.10;100.00;102063.28;5018671;28;45467;-72
2022/05/28 04:30:34;;;;;;;;;10.00;10.00;;;;;16.09;100.00;102064.16;5036281;28;46978;-73
2022/05/28 04:33:00;;;;;;;;;14.00;10.00;;;;;16.07;100.00;102060.56;5037853;28;57673;-73
2022/05/28 04:35:26;;;;;;;;;13.67;8.67;;;;;16.06;100.00;102066.78;5032393;28;45536;-72
2022/05/28 04:37:51;;;;;;;;;15.00;11.00;;;;;16.04;100.00;102058.78;5018509;28;45331;-72
2022/05/28 04:40:16;;;;;;;;;10.00;9.67;;;;;16.04;100.00;102063.25;5017585;28;63330;-72
2022/05/28 04:42:42;;;;;;;;;9.67;9.67;;;;;16.04;100.00;102065.91;5017734;28;59731;-75
2022/05/28 04:45:07;;;;;;;;;13.67;11.00;;;;;16.08;100.00;102073.00;5017707;28;56070;-75
2022/05/28 04:47:33;;;;;;;;;8.00;8.00;;;;;16.09;100.00;102072.16;5000415;28;45420;-73
2022/05/28 04:49:58;;;;;;;;;14.00;7.67;;;;;16.10;100.00;102064.16;5017698;28;60363;-73
2022/05/28 04:52:24;;;;;;;;;10.00;6.00;;;;;16.12;100.00;102062.41;5017838;28;45389;-72
2022/05/28 04:54:49;;;;;;;;;7.33;7.33;;;;;16.15;100.00;102072.19;5027367;28;45849;-73
2022/05/28 04:57:14;;;;;;;;;9.33;9.33;;;;;16.17;100.00;102068.66;5037196;28;50333;-73
2022/05/28 04:59:41;;;;;;;;;12.00;9.33;;;;;16.18;100.00;102061.56;5027149;28;46178;-73
2022/05/28 05:02:07;;;;;;;;;8.00;7.00;;;;;16.17;100.00;102068.66;5025521;28;45445;-72
2022/05/28 05:04:33;;;;;;;;;10.00;8.00;;;;;16.18;100.00;102075.75;5017789;28;45462;-72
2022/05/28 05:06:58;;;;;;;;;8.00;8.00;;;;;16.19;100.00;102071.31;5030144;28;45482;-73
2022/05/28 05:09:24;;;;;;;;;14.00;10.00;;;;;16.20;100.00;102070.47;5034614;28;63678;-75
2022/05/28 05:11:49;;;;;;;;;12.00;9.00;;;;;16.20;100.00;102079.34;5023333;28;61090;-73
2022/05/28 05:14:15;;;;;;;;;14.67;8.33;;;;;16.26;100.00;102075.84;5021640;28;46122;-73
2022/05/28 05:16:40;;;;;;;;;10.67;10.00;;;;;16.27;100.00;102071.41;5037162;28;50836;-72
2022/05/28 05:19:05;;;;;;;;;11.00;10.33;;;;;16.28;100.00;102067.84;5002943;28;46244;-73
2022/05/28 05:21:31;;;;;;;;;12.00;8.67;;;;;16.29;100.00;102074.97;5016766;28;57788;-73
2022/05/28 05:23:57;;;;;;;;;11.67;9.33;;;;;16.28;100.00;102067.84;5017129;28;55971;-76
2022/05/28 05:26:22;;;;;;;;;9.33;8.33;;;;;16.27;100.00;102072.28;5024865;28;49187;-72
2022/05/28 05:28:48;;;;;;;;;11.00;8.00;;;;;16.28;100.00;102075.84;5036727;28;61202;-73
2022/05/28 05:31:13;;;;;;;;;10.00;9.00;;;;;16.29;100.00;102077.63;5026234;28;45368;-74
2022/05/28 05:33:39;;;;;;;;;15.33;11.33;;;;;16.29;100.00;102081.19;5017406;28;45290;-72
2022/05/28 05:36:05;;;;;;;;;11.33;8.33;;;;;16.29;100.00;102073.19;5024835;28;45369;-74
2022/05/28 05:38:30;;;;;;;;;13.00;10.33;;;;;16.30;100.00;102063.41;5017034;28;45519;-73
2022/05/28 05:40:56;;;;;;;;;10.00;9.67;;;;;16.30;100.00;102066.06;5017840;28;46400;-75
2022/05/28 05:43:21;;;;;;;;;14.33;9.00;;;;;16.29;100.00;102066.97;5027330;28;45142;-72
2022/05/28 05:45:57;;;;;;;;;15.67;8.67;;;;;16.30;100.00;102068.75;5031538;28;45462;-75
2022/05/28 05:48:23;;;;;;;;;17.00;11.67;;;;;16.35;100.00;102072.31;5016992;28;46428;-72
2022/05/28 05:50:49;;;;;;;;;16.67;11.33;;;;;16.36;100.00;102064.38;5017313;28;45384;-72
2022/05/28 05:53:15;;;;;;;;;18.33;11.67;;;;;16.39;100.00;102076.81;5017376;28;45389;-72
2022/05/28 05:55:41;;;;;;;;;14.00;12.67;;;;;16.41;100.00;102078.63;5035356;28;45293;-74
2022/05/28 05:58:06;;;;;;;;;15.33;9.33;;;;;16.41;100.00;102070.63;5013949;28;46141;-73
2022/05/28 06:00:32;;;;;;;;;14.00;9.67;;;;;16.41;100.00;102077.72;5035953;28;45462;-72
2022/05/28 06:02:57;;;;;;;;;13.00;11.67;;;;;16.40;100.00;102081.25;5026541;28;45332;-72
2022/05/28 06:05:23;;;;;;;;;12.00;8.67;;;;;16.36;100.00;102083.03;5023621;28;52551;-74
2022/05/28 06:07:48;;;;;;;;;14.00;11.50;;;;;16.35;100.00;102086.59;5025526;28;45392;-73
2022/05/28 06:10:14;;;;;;;;;14.67;11.33;;;;;16.34;100.00;102087.44;5027734;28;52336;-72
2022/05/28 06:12:39;;;;;;;;;11.00;9.33;;;;;16.34;100.00;102086.53;5024032;28;46236;-74
2022/05/28 06:15:06;;;;;;;;;10.00;9.00;;;;;16.32;100.00;102081.22;5028352;28;55606;-73
2022/05/28 06:17:34;;;;;;;;;12.67;10.33;;;;;16.34;100.00;102081.22;5026325;28;45237;-74
2022/05/28 06:20:00;;;;;;;;;9.50;8.00;;;;;16.36;100.00;102088.34;5027398;28;45326;-73
2022/05/28 06:22:25;;;;;;;;;19.67;12.00;;;;;16.41;100.00;102083.94;5021046;28;45495;-74
2022/05/28 06:24:50;;;;;;;;;13.67;11.00;;;;;16.47;100.00;102077.78;5021833;28;53291;-73
2022/05/28 06:27:16;;;;;;;;;15.00;10.00;;;;;16.52;100.00;102073.38;5035948;28;54481;-73
2022/05/28 06:29:41;;;;;;;;;13.67;12.67;;;;;16.54;100.00;102084.03;5022978;28;56166;-73
2022/05/28 06:32:07;;;;;;;;;12.33;10.00;;;;;16.58;100.00;102083.16;5023492;28;54561;-73
2022/05/28 06:34:32;;;;;;;;;13.00;11.33;;;;;16.63;100.00;102090.31;5031587;28;45559;-73
2022/05/28 06:36:57;;;;;;;;;13.67;10.67;;;;;16.66;100.00;102086.75;5035847;28;59562;-73
2022/05/28 06:39:23;;;;;;;;;13.00;11.33;;;;;16.70;100.00;102078.78;5027924;28;59624;-73
2022/05/28 06:41:48;;;;;;;;;12.33;9.33;;;;;16.74;100.00;102077.97;5036208;28;45860;-73
2022/05/28 06:44:13;;;;;;;;;18.00;11.33;;;;;16.82;100.00;102080.66;5035949;28;56024;-73
2022/05/28 06:46:39;;;;;;;;;9.67;9.33;;;;;16.89;100.00;102082.50;5028627;28;63820;-75
2022/05/28 06:49:04;;;;;;;;;15.33;11.33;;;;;16.94;100.00;102078.06;5015632;28;62031;-72
2022/05/28 06:51:31;;;;;;;;;18.33;12.00;;;;;17.00;100.00;102079.88;5015795;28;57602;-73
2022/05/28 06:53:57;;;;;;;;;13.33;12.00;;;;;17.02;100.00;102080.75;4998875;28;45665;-73
2022/05/28 06:56:22;;;;;;;;;13.00;10.33;;;;;17.07;100.00;102080.78;5015607;28;60025;-75
2022/05/28 06:58:47;;;;;;;;;14.00;12.00;;;;;17.10;100.00;102089.72;5016288;28;49224;-74
2022/05/28 07:01:15;;;;;;;;;18.67;12.33;;;;;17.09;100.00;102077.22;5032742;28;45662;-73
2022/05/28 07:03:43;;;;;;;;;16.33;12.00;;;;;17.10;100.00;102073.69;5028377;28;45403;-73
2022/05/28 07:06:09;;;;;;;;;13.67;11.00;;;;;17.14;100.00;102067.47;5017094;28;47025;-72
2022/05/28 07:08:35;;;;;;;;;11.00;10.00;;;;;17.17;100.00;102066.59;5028890;28;45258;-73
2022/05/28 07:11:01;;;;;;;;;13.33;11.33;;;;;17.21;100.00;102063.94;5029250;28;56605;-73
2022/05/28 07:13:27;;;;;;;;;16.00;11.00;;;;;17.25;100.00;102072.84;5019364;28;45535;-70
2022/05/28 07:15:53;;;;;;;;;15.00;11.33;;;;;17.20;100.00;102067.47;5018225;28;45766;-70
2022/05/28 07:18:19;;;;;;;;;10.67;9.33;;;;;17.11;100.00;102067.47;5016162;28;45293;-70
2022/05/28 07:20:45;;;;;;;;;11.67;10.00;;;;;17.04;100.00;102060.31;5023596;28;45574;-70
2022/05/28 07:23:19;;;;;;;;;15.00;11.00;;;;;16.96;100.00;102059.41;5015290;28;45562;-71
2022/05/28 07:25:45;;;;;;;;;15.00;9.67;;;;;16.93;100.00;102059.38;5036073;28;47460;-70
2022/05/28 07:28:27;;;;;;;;;14.33;10.00;;;;;16.85;100.00;102058.47;5006178;28;45432;-72
2022/05/28 07:30:55;;;;;;;;;15.00;11.67;;;;;16.79;100.00;102061.09;5038002;28;45313;-69
2022/05/28 07:33:20;;;;;;;;;10.67;10.00;;;;;16.77;100.00;102053.94;5038130;28;45494;-70
2022/05/28 07:35:46;;;;;;;;;14.00;12.00;;;;;16.79;100.00;102045.97;5038021;28;45984;-71
2022/05/28 07:38:12;;;;;;;;;18.33;13.67;;;;;16.84;100.00;102054.00;5030706;28;46712;-71
2022/05/28 07:40:37;;;;;;;;;13.00;10.33;;;;;16.86;100.00;102054.91;5028663;28;45625;-69
2022/05/28 07:43:03;;;;;;;;;19.67;12.33;;;;;16.90;100.00;102052.25;5022233;28;45564;-69
2022/05/28 07:45:30;;;;;;;;;11.67;11.33;;;;;16.94;100.00;102050.50;5034830;28;46568;-70
2022/05/28 07:47:56;;;;;;;;;13.67;7.33;;;;;16.97;100.00;102051.38;5034931;28;45450;-69
2022/05/28 07:50:21;;;;;;;;;13.67;11.00;;;;;17.02;100.00;102051.41;5018810;28;45231;-69
2022/05/28 07:52:50;;;;;;;;;16.33;11.67;;;;;17.08;100.00;102045.19;5024991;28;45614;-69
2022/05/28 07:55:15;;;;;;;;;16.67;11.00;;;;;17.11;100.00;102048.78;5028628;28;62709;-69
2022/05/28 07:57:41;;;;;;;;;16.67;14.33;;;;;17.12;100.00;102042.56;5026876;28;45468;-69
2022/05/28 08:00:07;;;;;;;;;10.33;10.00;;;;;17.14;100.00;102038.09;5034871;28;48030;-69
2022/05/28 08:02:32;;;;;;;;;12.33;11.00;;;;;17.21;100.00;102031.91;5032790;28;45495;-69
2022/05/28 08:04:58;;;;;;;;;16.67;11.00;;;;;17.32;100.00;102037.28;5017116;28;58215;-69
2022/05/28 08:07:23;;;;;;;;;12.67;10.00;;;;;17.37;100.00;102037.31;5022124;28;58853;-69
2022/05/28 08:09:48;;;;;;;;;16.67;12.00;;;;;17.42;100.00;102040.88;5032462;28;59161;-70
2022/05/28 08:12:14;;;;;;;;;11.00;8.00;;;;;17.47;100.00;102039.06;5019725;28;48233;-72
2022/05/28 08:14:39;;;;;;;;;14.33;10.33;;;;;17.54;100.00;102038.22;5017993;28;58314;-72
2022/05/28 08:17:04;;;;;;;;;13.33;10.33;;;;;17.64;100.00;102031.13;5033854;28;48767;-74
2022/05/28 08:19:31;;;;;;;;;12.00;10.67;;;;;17.75;100.00;102043.63;5024710;28;45622;-72
2022/05/28 08:24:40;;;;;;;;;15.67;9.00;;;;;17.95;100.00;102048.06;5017891;28;45732;-73
2022/05/28 08:27:05;;;;;;;;;11.00;8.00;;;;;17.96;100.00;102041.84;5017108;28;61892;-72
2022/05/28 08:29:31;;;;;;;;;14.00;11.00;;;;;18.01;100.00;102037.41;5027716;28;53803;-73
2022/05/28 08:31:56;;;;;;;;;15.67;10.00;;;;;18.09;100.00;102040.03;5021265;28;45534;-74
2022/05/28 08:34:22;;;;;;;;;14.33;10.00;;;;;18.15;100.00;102045.38;5033089;28;46360;-71
2022/05/28 08:36:47;;;;;;;;;10.67;8.00;;;;;18.15;100.00;102037.34;5019925;28;52619;-71
2022/05/28 08:39:12;;;;;;;;;12.67;8.00;;;;;18.20;100.00;102039.13;5024876;28;45193;-71
2022/05/28 08:41:44;;;;;;;;;12.00;10.67;;;;;18.31;100.00;102039.13;5020619;28;45622;-71
2022/05/28 08:44:18;;;;;;;;;10.00;10.00;;;;;18.42;100.00;102031.06;5038148;28;46640;-71
2022/05/28 08:46:55;;;;;;;;;16.67;10.00;;;;;18.55;100.00;102024.81;5038028;28;45416;-72
2022/05/28 08:49:23;;;;;;;;;20.00;11.00;;;;;18.64;100.00;102024.75;5031362;28;45253;-72
2022/05/28 08:52:08;;;;;;;;;11.33;9.67;;;;;18.65;100.00;102028.38;5020470;28;45494;-71
2022/05/28 08:54:58;;;;;;;;;15.33;10.33;;;;;18.67;100.00;102024.78;5013214;28;45475;-72
2022/05/28 08:58:00;;;;;;;;;11.67;10.00;;;;;18.75;100.00;102019.41;5002116;28;45373;-72
2022/05/28 09:00:48;;;;;;;;;8.33;8.00;;;;;18.84;100.00;102022.94;5006392;28;45337;-72
2022/05/28 09:03:24;;;;;;;;;10.33;8.00;;;;;18.90;100.00;102019.34;5126024;23;45531;-71
2022/05/28 09:06:01;;;;;;;;;12.67;8.00;;;;;18.98;100.00;102017.53;5009635;28;46315;-71
2022/05/28 09:08:54;;;;;;;;;12.00;10.00;;;;;19.04;100.00;102005.91;5032396;28;45490;-73
2022/05/28 09:11:30;;;;;;;;;8.00;6.67;;;;;19.10;100.00;102003.19;5020248;28;45313;-72
2022/05/28 09:13:56;;;;;;;;;6.00;5.33;;;;;19.15;100.00;101998.72;5020427;28;45492;-71
2022/05/28 09:16:26;;;;;;;;;13.00;9.00;;;;;19.20;100.00;101996.91;5016912;28;63474;-71
2022/05/28 09:18:54;;;;;;;;;13.00;7.67;;;;;19.16;100.00;101997.81;5017705;28;45369;-73
2022/05/28 09:21:21;;;;;;;;;7.33;7.33;;;;;19.10;100.00;101996.06;5017795;28;45468;-72
2022/05/28 09:24:01;;;;;;;;;10.33;6.67;;;;;19.09;100.00;101996.06;5017648;28;45328;-71
2022/05/28 09:26:31;;;;;;;;;10.67;6.00;;;;;19.16;100.00;102002.28;5017313;28;46601;-71
2022/05/28 09:29:20;;;;;;;;;9.67;8.00;;;;;19.28;100.00;101996.84;5023290;28;45426;-71
2022/05/28 09:32:24;;;;;;;;;14.67;9.33;;;;;19.41;100.00;101985.16;5026678;28;45241;-71
2022/05/28 09:35:01;;;;;;;;;7.67;6.00;;;;;19.52;100.00;101991.31;5018761;28;45479;-71
2022/05/28 09:37:29;;;;;;;;;12.00;8.00;;;;;19.63;100.00;101989.47;5017307;28;45749;-73
2022/05/28 09:40:11;;;;;;;;;8.33;6.67;;;;;19.77;100.00;101970.63;4999682;28;45464;-73
2022/05/28 09:42:55;;;;;;;;;9.67;6.00;;;;;19.98;100.00;101963.28;4999728;28;45389;-71
2022/05/28 09:45:55;;;;;;;;;7.33;5.00;;;;;20.25;100.00;101963.00;5025252;28;45242;-73
2022/05/28 09:48:23;;;;;;;;;6.67;6.00;;;;;20.52;100.00;101961.81;5027500;28;45688;-71
2022/05/28 09:50:48;;;;;;;;;7.00;6.00;;;;;20.66;95.92;101961.63;5031297;28;45331;-71
2022/05/28 09:56:45;;;;;;;;;8.33;6.00;;;;;20.83;97.50;101950.69;5037414;28;45399;-72
2022/05/28 09:59:28;;;;;;;;;9.67;5.33;;;;;20.94;96.13;101946.06;5012416;28;47424;-71
2022/05/28 10:02:07;;;;;;;;;7.33;4.00;;;;;21.05;94.16;101946.78;5026243;28;45230;-72
2022/05/28 10:04:42;;;;;;;;;5.67;4.00;;;;;21.15;95.43;101937.69;5017023;28;45390;-71
2022/05/28 10:07:08;;;;;;;;;7.00;5.00;;;;;21.25;93.97;101937.53;4999999;28;45385;-73
2022/05/28 10:09:34;;;;;;;;;7.33;6.00;;;;;21.31;94.66;101933.00;5018283;28;47067;-71
2022/05/28 10:12:28;;;;;;;;;9.00;6.33;;;;;21.39;93.82;101936.44;4999707;28;45306;-71
2022/05/28 10:15:03;;;;;;;;;6.33;5.00;;;;;21.43;91.64;101929.22;5012850;28;45301;-71
2022/05/28 10:17:29;;;;;;;;;6.00;4.67;;;;;21.48;91.50;101934.53;5018664;28;45445;-71
2022/05/28 10:19:56;;;;;;;;;9.33;5.00;;;;;21.54;90.21;101937.09;5016788;28;46406;-71
2022/05/28 10:22:24;;;;;;;;;0.00;0.00;;;;;21.57;87.85;101931.66;5017246;28;45272;-71
2022/05/28 10:25:07;;;;;;;;;6.67;5.00;;;;;21.57;83.96;101932.56;5009232;28;45335;-73
2022/05/28 10:27:46;;;;;;;;;4.67;4.67;;;;;21.64;87.27;101933.34;5037077;28;45365;-71
2022/05/28 10:30:24;;;;;;;;;4.00;4.00;;;;;21.68;83.73;101930.59;5016096;28;46533;-70
2022/05/28 10:32:51;;;;;;;;;6.67;4.00;;;;;21.71;85.25;101932.31;5016889;28;45384;-71
2022/05/28 10:35:20;;;;;;;;;5.00;5.00;;;;;21.66;82.40;101931.50;5020353;28;45495;-71
2022/05/28 10:37:46;;;;;;;;;7.00;2.67;;;;;21.65;83.17;101921.69;5017012;28;45318;-73
2022/05/28 10:40:22;;;;;;;;;4.33;4.33;;;;;21.64;79.95;101925.28;4998996;28;47549;-71
2022/05/28 10:42:48;;;;;;;;;4.00;4.00;;;;;21.52;79.62;101930.84;5016859;28;45332;-72
2022/05/28 10:45:21;;;;;;;;;4.00;3.67;;;;;21.35;79.67;101931.13;5017155;28;45512;-71
2022/05/28 10:48:09;;;;;;;;;4.00;4.00;;;;;21.21;77.93;101920.59;5017262;28;45406;-72
2022/05/28 10:50:45;;;;;;;;;4.33;1.00;;;;;21.08;77.41;101921.66;4999245;28;45669;-71
2022/05/28 10:53:48;;;;;;;;;4.67;3.00;;;;;20.99;76.69;101921.84;5017054;28;45571;-73
2022/05/28 10:56:53;;;;;;;;;7.33;3.00;;;;;20.92;76.80;101918.31;5016235;28;45266;-72
2022/05/28 10:59:36;;;;;;;;;4.33;3.00;;;;;20.88;77.18;101916.63;5031122;28;45603;-71
2022/05/28 11:02:11;;;;;;;;;7.00;4.00;;;;;20.84;78.19;101906.81;5017644;28;46830;-71
2022/05/28 11:04:49;;;;;;;;;4.00;3.00;;;;;20.92;80.46;101913.84;5041135;28;45358;-71
2022/05/28 11:07:27;;;;;;;;;3.00;3.00;;;;;21.02;79.97;101901.16;5027684;28;45345;-71
2022/05/28 11:10:32;;;;;;;;;3.00;3.00;;;;;21.16;78.95;101900.97;5027794;28;45707;-71
2022/05/28 11:13:12;;;;;;;;;6.33;3.67;;;;;21.24;76.76;101903.53;5030831;28;46708;-73
2022/05/28 11:15:46;;;;;;;;;5.33;3.00;;;;;21.31;76.26;101900.75;5026144;28;45455;-71
2022/05/28 11:18:23;;;;;;;;;1.67;1.33;;;;;21.34;76.50;101899.81;5038927;28;45514;-72
2022/05/28 11:21:18;;;;;;;;;5.33;3.00;;;;;21.35;74.53;101896.19;5039195;28;45344;-72
2022/05/28 11:24:11;;;;;;;;;5.00;2.00;;;;;21.40;74.28;101899.69;5032402;28;46578;-73
2022/05/28 11:27:01;;;;;;;;;4.33;3.00;;;;;21.52;75.29;101888.75;5016763;28;45510;-73
2022/05/28 11:29:46;;;;;;;;;2.00;2.00;;;;;21.74;76.07;101878.50;5017851;28;45269;-74
2022/05/28 11:32:17;;;;;;;;;5.00;3.67;;;;;21.98;76.90;101885.19;5030303;28;45223;-73